sensor_id;sensor_type;location;lat;lon;timestamp;pressure;altitude;pressure_sealevel;temperature;humidity
54978;BME280;40873;47.522;19.106;2024-01-10T00:01:29;102043.63;;;-3.98;100.00
54978;BME280;40873;47.522;19.106;2024-01-10T00:03:58;102045.34;;;-3.97;100.00
54978;BME280;40873;47.522;19.106;2024-01-10T00:06:25;102041.84;;;-4.00;100.00
54978;BME280;40873;47.522;19.106;2024-01-10T00:08:52;102039.22;;;-4.02;100.00
54978;BME280;40873;47.522;19.106;2024-01-10T00:11:22;102040.88;;;-4.04;100.00
54978;BME280;40873;47.522;19.106;2024-01-10T00:13:51;102046.88;;;-4.05;100.00
54978;BME280;40873;47.522;19.106;2024-01-10T00:16:19;102050.22;;;-4.09;100.00
54978;BME280;40873;47.522;19.106;2024-01-10T00:18:47;102048.50;;;-4.08;100.00
54978;BME280;40873;47.522;19.106;2024-01-10T00:21:17;102051.94;;;-4.09;100.00
54978;BME280;40873;47.522;19.106;2024-01-10T00:23:47;102051.16;;;-4.05;100.00
54978;BME280;40873;47.522;19.106;2024-01-10T00:26:14;102044.22;;;-4.08;100.00
54978;BME280;40873;47.522;19.106;2024-01-10T00:28:44;102051.84;;;-4.11;100.00
54978;BME280;40873;47.522;19.106;2024-01-10T00:31:13;102055.09;;;-4.18;100.00
54978;BME280;40873;47.522;19.106;2024-01-10T00:33:40;102050.81;;;-4.18;100.00
54978;BME280;40873;47.522;19.106;2024-01-10T00:36:08;102049.16;;;-4.17;100.00
54978;BME280;40873;47.522;19.106;2024-01-10T00:38:37;102049.94;;;-4.18;100.00
54978;BME280;40873;47.522;19.106;2024-01-10T00:41:05;102050.88;;;-4.16;100.00
54978;BME280;40873;47.522;19.106;2024-01-10T00:43:32;102053.38;;;-4.19;100.00
54978;BME280;40873;47.522;19.106;2024-01-10T00:45:59;102049.00;;;-4.22;100.00
54978;BME280;40873;47.522;19.106;2024-01-10T00:48:26;102050.72;;;-4.22;100.00
54978;BME280;40873;47.522;19.106;2024-01-10T00:50:53;102052.31;;;-4.26;100.00
54978;BME280;40873;47.522;19.106;2024-01-10T00:53:20;102051.59;;;-4.22;100.00
54978;BME280;40873;47.522;19.106;2024-01-10T00:55:48;102057.56;;;-4.23;100.00
54978;BME280;40873;47.522;19.106;2024-01-10T00:58:15;102057.50;;;-4.24;100.00
54978;BME280;40873;47.522;19.106;2024-01-10T01:00:42;102065.84;;;-4.34;100.00
54978;BME280;40873;47.522;19.106;2024-01-10T01:03:09;102052.94;;;-4.34;100.00
54978;BME280;40873;47.522;19.106;2024-01-10T01:05:39;102058.91;;;-4.37;100.00
54978;BME280;40873;47.522;19.106;2024-01-10T01:08:06;102055.47;;;-4.37;100.00
54978;BME280;40873;47.522;19.106;2024-01-10T01:10:34;102061.28;;;-4.45;100.00
54978;BME280;40873;47.522;19.106;2024-01-10T01:13:04;102063.88;;;-4.43;100.00
54978;BME280;40873;47.522;19.106;2024-01-10T01:15:32;102052.72;;;-4.44;100.00
54978;BME280;40873;47.522;19.106;2024-01-10T01:17:59;102065.63;;;-4.42;100.00
54978;BME280;40873;47.522;19.106;2024-01-10T01:20:29;102058.72;;;-4.43;100.00
54978;BME280;40873;47.522;19.106;2024-01-10T01:22:58;102062.25;;;-4.39;100.00
54978;BME280;40873;47.522;19.106;2024-01-10T01:25:28;102065.75;;;-4.37;100.00
54978;BME280;40873;47.522;19.106;2024-01-10T01:27:55;102058.06;;;-4.36;100.00
54978;BME280;40873;47.522;19.106;2024-01-10T01:30:22;102053.75;;;-4.37;100.00
54978;BME280;40873;47.522;19.106;2024-01-10T01:32:49;102055.47;;;-4.37;100.00
54978;BME280;40873;47.522;19.106;2024-01-10T01:35:18;102052.09;;;-4.35;100.00
54978;BME280;40873;47.522;19.106;2024-01-10T01:37:48;102051.06;;;-4.40;100.00
54978;BME280;40873;47.522;19.106;2024-01-10T01:40:17;102054.41;;;-4.44;100.00
54978;BME280;40873;47.522;19.106;2024-01-10T01:42:47;102053.47;;;-4.46;100.00
54978;BME280;40873;47.522;19.106;2024-01-10T01:45:15;102050.91;;;-4.46;100.00
54978;BME280;40873;47.522;19.106;2024-01-10T01:47:41;102056.00;;;-4.48;100.00
54978;BME280;40873;47.522;19.106;2024-01-10T01:50:11;102047.41;;;-4.48;100.00
54978;BME280;40873;47.522;19.106;2024-01-10T01:52:38;102053.53;;;-4.45;100.00
54978;BME280;40873;47.522;19.106;2024-01-10T01:55:07;102049.91;;;-4.51;100.00
54978;BME280;40873;47.522;19.106;2024-01-10T01:57:35;102040.41;;;-4.52;100.00
54978;BME280;40873;47.522;19.106;2024-01-10T02:00:03;102048.91;;;-4.56;100.00
54978;BME280;40873;47.522;19.106;2024-01-10T02:02:31;102048.94;;;-4.55;100.00
54978;BME280;40873;47.522;19.106;2024-01-10T02:05:03;102047.19;;;-4.56;100.00
54978;BME280;40873;47.522;19.106;2024-01-10T02:07:30;102042.78;;;-4.60;100.00
54978;BME280;40873;47.522;19.106;2024-01-10T02:09:59;102048.91;;;-4.56;100.00
54978;BME280;40873;47.522;19.106;2024-01-10T02:12:27;102041.97;;;-4.59;100.00
54978;BME280;40873;47.522;19.106;2024-01-10T02:14:54;102041.03;;;-4.61;100.00
54978;BME280;40873;47.522;19.106;2024-01-10T02:17:24;102042.75;;;-4.61;100.00
54978;BME280;40873;47.522;19.106;2024-01-10T02:20:10;102037.59;;;-4.61;100.00
54978;BME280;40873;47.522;19.106;2024-01-10T02:22:38;102034.97;;;-4.63;100.00
54978;BME280;40873;47.522;19.106;2024-01-10T02:25:12;102043.53;;;-4.64;100.00
54978;BME280;40873;47.522;19.106;2024-01-10T02:27:41;102036.44;;;-4.73;100.00
54978;BME280;40873;47.522;19.106;2024-01-10T02:30:09;102026.84;;;-4.77;100.00
54978;BME280;40873;47.522;19.106;2024-01-10T02:32:38;102033.59;;;-4.80;100.00
54978;BME280;40873;47.522;19.106;2024-01-10T02:35:06;102033.78;;;-4.74;100.00
54978;BME280;40873;47.522;19.106;2024-01-10T02:37:33;102036.97;;;-4.83;100.00
54978;BME280;40873;47.522;19.106;2024-01-10T02:40:11;102042.81;;;-4.88;100.00
54978;BME280;40873;47.522;19.106;2024-01-10T02:42:39;102035.09;;;-4.88;100.00
54978;BME280;40873;47.522;19.106;2024-01-10T02:45:09;102032.47;;;-4.90;100.00
54978;BME280;40873;47.522;19.106;2024-01-10T02:47:36;102034.13;;;-4.92;100.00
54978;BME280;40873;47.522;19.106;2024-01-10T02:50:06;102035.88;;;-4.91;100.00
54978;BME280;40873;47.522;19.106;2024-01-10T02:52:33;102039.31;;;-4.90;100.00
54978;BME280;40873;47.522;19.106;2024-01-10T02:55:01;102035.00;;;-4.91;100.00
54978;BME280;40873;47.522;19.106;2024-01-10T02:57:28;102033.16;;;-4.96;100.00
54978;BME280;40873;47.522;19.106;2024-01-10T02:59:56;102039.25;;;-4.93;100.00
54978;BME280;40873;47.522;19.106;2024-01-10T03:02:22;102037.53;;;-4.93;100.00
54978;BME280;40873;47.522;19.106;2024-01-10T03:04:51;102041.72;;;-4.97;100.00
54978;BME280;40873;47.522;19.106;2024-01-10T03:07:23;102043.63;;;-4.89;100.00
54978;BME280;40873;47.522;19.106;2024-01-10T03:09:53;102041.63;;;-5.00;100.00
54978;BME280;40873;47.522;19.106;2024-01-10T03:12:21;102044.97;;;-5.02;100.00
54978;BME280;40873;47.522;19.106;2024-01-10T03:14:50;102040.81;;;-4.99;100.00
54978;BME280;40873;47.522;19.106;2024-01-10T03:17:17;102042.50;;;-4.99;100.00
54978;BME280;40873;47.522;19.106;2024-01-10T03:19:45;102042.41;;;-5.02;100.00
54978;BME280;40873;47.522;19.106;2024-01-10T03:22:12;102036.81;;;-4.87;100.00
54978;BME280;40873;47.522;19.106;2024-01-10T03:24:39;102033.16;;;-4.96;100.00
54978;BME280;40873;47.522;19.106;2024-01-10T03:27:06;102038.31;;;-4.96;100.00
54978;BME280;40873;47.522;19.106;2024-01-10T03:29:34;102042.59;;;-4.96;100.00
54978;BME280;40873;47.522;19.106;2024-01-10T03:32:04;102036.72;;;-4.92;100.00
54978;BME280;40873;47.522;19.106;2024-01-10T03:34:31;102035.63;;;-5.00;100.00
54978;BME280;40873;47.522;19.106;2024-01-10T03:36:58;102032.97;;;-5.02;100.00
54978;BME280;40873;47.522;19.106;2024-01-10T03:39:25;102034.59;;;-5.05;100.00
54978;BME280;40873;47.522;19.106;2024-01-10T03:41:54;102037.13;;;-5.07;100.00
54978;BME280;40873;47.522;19.106;2024-01-10T03:44:22;102028.44;;;-5.10;100.00
54978;BME280;40873;47.522;19.106;2024-01-10T03:46:52;102034.38;;;-5.13;100.00
54978;BME280;40873;47.522;19.106;2024-01-10T03:49:19;102032.50;;;-5.17;100.00
54978;BME280;40873;47.522;19.106;2024-01-10T03:51:46;102028.38;;;-5.12;100.00
54978;BME280;40873;47.522;19.106;2024-01-10T03:54:13;102035.53;;;-5.02;100.00
54978;BME280;40873;47.522;19.106;2024-01-10T03:56:40;102033.63;;;-5.09;100.00
54978;BME280;40873;47.522;19.106;2024-01-10T03:59:07;102033.50;;;-5.13;100.00
54978;BME280;40873;47.522;19.106;2024-01-10T04:01:34;102042.81;;;-5.17;100.00
54978;BME280;40873;47.522;19.106;2024-01-10T04:04:02;102039.22;;;-5.22;100.00
54978;BME280;40873;47.522;19.106;2024-01-10T04:06:29;102034.06;;;-5.22;100.00
54978;BME280;40873;47.522;19.106;2024-01-10T04:08:56;102034.19;;;-5.19;100.00
54978;BME280;40873;47.522;19.106;2024-01-10T04:11:23;102035.97;;;-5.16;100.00
54978;BME280;40873;47.522;19.106;2024-01-10T04:13:51;102035.88;;;-5.19;100.00
54978;BME280;40873;47.522;19.106;2024-01-10T04:16:21;102037.63;;;-5.18;100.00
54978;BME280;40873;47.522;19.106;2024-01-10T04:18:50;102034.19;;;-5.19;100.00
54978;BME280;40873;47.522;19.106;2024-01-10T04:21:17;102034.06;;;-5.22;100.00
54978;BME280;40873;47.522;19.106;2024-01-10T04:23:44;102037.38;;;-5.26;100.00
54978;BME280;40873;47.522;19.106;2024-01-10T04:26:11;102036.56;;;-5.25;100.00
54978;BME280;40873;47.522;19.106;2024-01-10T04:28:41;102045.06;;;-5.28;100.00
54978;BME280;40873;47.522;19.106;2024-01-10T04:31:08;102038.72;;;-5.37;100.00
54978;BME280;40873;47.522;19.106;2024-01-10T04:33:35;102035.41;;;-5.35;100.00
54978;BME280;40873;47.522;19.106;2024-01-10T04:36:03;102039.69;;;-5.35;100.00
54978;BME280;40873;47.522;19.106;2024-01-10T04:38:35;102041.44;;;-5.34;100.00
54978;BME280;40873;47.522;19.106;2024-01-10T04:41:02;102047.41;;;-5.35;100.00
54978;BME280;40873;47.522;19.106;2024-01-10T04:43:30;102056.69;;;-5.39;100.00
54978;BME280;40873;47.522;19.106;2024-01-10T04:45:57;102059.91;;;-5.46;100.00
54978;BME280;40873;47.522;19.106;2024-01-10T04:48:24;102060.72;;;-5.47;100.00
54978;BME280;40873;47.522;19.106;2024-01-10T04:50:51;102059.00;;;-5.48;100.00
54978;BME280;40873;47.522;19.106;2024-01-10T04:53:18;102061.66;;;-5.45;100.00
54978;BME280;40873;47.522;19.106;2024-01-10T04:55:45;102059.06;;;-5.45;100.00
54978;BME280;40873;47.522;19.106;2024-01-10T04:58:17;102062.38;;;-5.49;100.00
54978;BME280;40873;47.522;19.106;2024-01-10T05:00:44;102060.53;;;-5.53;100.00
54978;BME280;40873;47.522;19.106;2024-01-10T05:03:11;102062.06;;;-5.58;100.00
54978;BME280;40873;47.522;19.106;2024-01-10T05:05:39;102057.88;;;-5.56;100.00
54978;BME280;40873;47.522;19.106;2024-01-10T05:08:06;102056.00;;;-5.60;100.00
54978;BME280;40873;47.522;19.106;2024-01-10T05:10:33;102068.50;;;-5.71;100.00
54978;BME280;40873;47.522;19.106;2024-01-10T05:13:01;102067.78;;;-5.67;100.00
54978;BME280;40873;47.522;19.106;2024-01-10T05:15:27;102055.84;;;-5.65;100.00
54978;BME280;40873;47.522;19.106;2024-01-10T05:17:55;102059.41;;;-5.61;100.00
54978;BME280;40873;47.522;19.106;2024-01-10T05:20:22;102061.88;;;-5.64;100.00
54978;BME280;40873;47.522;19.106;2024-01-10T05:22:49;102058.53;;;-5.62;100.00
54978;BME280;40873;47.522;19.106;2024-01-10T05:25:19;102060.88;;;-5.69;100.00
54978;BME280;40873;47.522;19.106;2024-01-10T05:27:49;102066.00;;;-5.69;100.00
54978;BME280;40873;47.522;19.106;2024-01-10T05:30:16;102068.72;;;-5.65;100.00
54978;BME280;40873;47.522;19.106;2024-01-10T05:32:45;102067.09;;;-5.63;100.00
54978;BME280;40873;47.522;19.106;2024-01-10T05:35:12;102062.84;;;-5.61;100.00
54978;BME280;40873;47.522;19.106;2024-01-10T05:37:42;102067.78;;;-5.67;100.00
54978;BME280;40873;47.522;19.106;2024-01-10T05:40:10;102067.88;;;-5.64;100.00
54978;BME280;40873;47.522;19.106;2024-01-10T05:42:38;102065.22;;;-5.67;100.00
54978;BME280;40873;47.522;19.106;2024-01-10T05:45:05;102066.78;;;-5.70;100.00
54978;BME280;40873;47.522;19.106;2024-01-10T05:47:33;102060.16;;;-5.64;100.00
54978;BME280;40873;47.522;19.106;2024-01-10T05:50:01;102061.03;;;-5.63;100.00
54978;BME280;40873;47.522;19.106;2024-01-10T05:52:30;102068.91;;;-5.59;100.00
54978;BME280;40873;47.522;19.106;2024-01-10T05:54:57;102058.75;;;-5.56;100.00
54978;BME280;40873;47.522;19.106;2024-01-10T05:57:27;102061.34;;;-5.54;100.00
54978;BME280;40873;47.522;19.106;2024-01-10T05:59:55;102057.78;;;-5.58;100.00
54978;BME280;40873;47.522;19.106;2024-01-10T06:02:24;102048.28;;;-5.60;100.00
54978;BME280;40873;47.522;19.106;2024-01-10T06:04:51;102051.16;;;-5.51;100.00
54978;BME280;40873;47.522;19.106;2024-01-10T06:07:19;102056.25;;;-5.53;100.00
54978;BME280;40873;47.522;19.106;2024-01-10T06:09:47;102057.97;;;-5.53;100.00
54978;BME280;40873;47.522;19.106;2024-01-10T06:12:15;102069.13;;;-5.53;100.00
54978;BME280;40873;47.522;19.106;2024-01-10T06:14:41;102064.81;;;-5.54;100.00
54978;BME280;40873;47.522;19.106;2024-01-10T06:17:09;102081.06;;;-5.55;100.00
54978;BME280;40873;47.522;19.106;2024-01-10T06:19:36;102078.50;;;-5.55;100.00
54978;BME280;40873;47.522;19.106;2024-01-10T06:22:03;102075.78;;;-5.58;100.00
54978;BME280;40873;47.522;19.106;2024-01-10T06:24:30;102064.84;;;-5.52;100.00
54978;BME280;40873;47.522;19.106;2024-01-10T06:26:57;102067.19;;;-5.33;100.00
54978;BME280;40873;47.522;19.106;2024-01-10T06:29:24;102071.41;;;-5.35;100.00
54978;BME280;40873;47.522;19.106;2024-01-10T06:31:51;102068.66;;;-5.41;100.00
54978;BME280;40873;47.522;19.106;2024-01-10T06:34:19;102068.56;;;-5.42;100.00
54978;BME280;40873;47.522;19.106;2024-01-10T06:36:46;102065.72;;;-5.25;100.00
54978;BME280;40873;47.522;19.106;2024-01-10T06:39:15;102082.72;;;-5.30;100.00
54978;BME280;40873;47.522;19.106;2024-01-10T06:41:50;102080.72;;;-5.38;100.00
54978;BME280;40873;47.522;19.106;2024-01-10T06:44:18;102085.78;;;-5.41;100.00
54978;BME280;40873;47.522;19.106;2024-01-10T06:46:47;102087.53;;;-5.40;100.00
54978;BME280;40873;47.522;19.106;2024-01-10T06:49:17;102093.59;;;-5.38;100.00
54978;BME280;40873;47.522;19.106;2024-01-10T06:51:44;102096.94;;;-5.41;100.00
54978;BME280;40873;47.522;19.106;2024-01-10T06:54:11;102095.94;;;-5.44;100.00
54978;BME280;40873;47.522;19.106;2024-01-10T06:56:43;102101.25;;;-5.40;100.00
54978;BME280;40873;47.522;19.106;2024-01-10T06:59:13;102099.50;;;-5.41;100.00
54978;BME280;40873;47.522;19.106;2024-01-10T07:01:43;102097.03;;;-5.38;100.00
54978;BME280;40873;47.522;19.106;2024-01-10T07:04:10;102105.00;;;-5.30;100.00
54978;BME280;40873;47.522;19.106;2024-01-10T07:06:40;102107.91;;;-5.19;100.00
54978;BME280;40873;47.522;19.106;2024-01-10T07:09:07;102106.31;;;-5.16;100.00
54978;BME280;40873;47.522;19.106;2024-01-10T07:11:35;102104.03;;;-5.07;100.00
54978;BME280;40873;47.522;19.106;2024-01-10T07:14:02;102102.34;;;-5.06;100.00
54978;BME280;40873;47.522;19.106;2024-01-10T07:16:31;102102.38;;;-5.05;100.00
54978;BME280;40873;47.522;19.106;2024-01-10T07:19:02;102097.31;;;-5.02;100.00
54978;BME280;40873;47.522;19.106;2024-01-10T07:21:30;102093.19;;;-4.97;100.00
54978;BME280;40873;47.522;19.106;2024-01-10T07:23:58;102096.75;;;-4.93;100.00
54978;BME280;40873;47.522;19.106;2024-01-10T07:26:27;102094.19;;;-4.93;100.00
54978;BME280;40873;47.522;19.106;2024-01-10T07:28:57;102095.13;;;-4.89;100.00
54978;BME280;40873;47.522;19.106;2024-01-10T07:31:24;102090.22;;;-4.82;100.00
54978;BME280;40873;47.522;19.106;2024-01-10T07:33:53;102087.78;;;-4.77;100.00
54978;BME280;40873;47.522;19.106;2024-01-10T07:36:23;102093.94;;;-4.72;100.00
54978;BME280;40873;47.522;19.106;2024-01-10T07:38:51;102099.09;;;-4.72;100.00
54978;BME280;40873;47.522;19.106;2024-01-10T07:41:19;102095.78;;;-4.68;100.00
54978;BME280;40873;47.522;19.106;2024-01-10T07:43:46;102098.53;;;-4.62;100.00
54978;BME280;40873;47.522;19.106;2024-01-10T07:46:13;102105.53;;;-4.58;100.00
54978;BME280;40873;47.522;19.106;2024-01-10T07:48:42;102105.66;;;-4.53;100.00
54978;BME280;40873;47.522;19.106;2024-01-10T07:51:12;102103.94;;;-4.53;100.00
54978;BME280;40873;47.522;19.106;2024-01-10T07:53:39;102104.25;;;-4.42;100.00
54978;BME280;40873;47.522;19.106;2024-01-10T07:56:08;102094.91;;;-4.38;100.00
54978;BME280;40873;47.522;19.106;2024-01-10T07:58:36;102113.00;;;-4.37;100.00
54978;BME280;40873;47.522;19.106;2024-01-10T08:01:06;102107.06;;;-4.34;100.00
54978;BME280;40873;47.522;19.106;2024-01-10T08:03:32;102114.88;;;-4.31;100.00
54978;BME280;40873;47.522;19.106;2024-01-10T08:06:03;102116.84;;;-4.23;100.00
54978;BME280;40873;47.522;19.106;2024-01-10T08:08:35;102112.81;;;-4.13;100.00
54978;BME280;40873;47.522;19.106;2024-01-10T08:11:03;102111.28;;;-4.06;100.00
54978;BME280;40873;47.522;19.106;2024-01-10T08:13:30;102117.47;;;-4.00;100.00
54978;BME280;40873;47.522;19.106;2024-01-10T08:15:57;102122.78;;;-3.95;100.00
54978;BME280;40873;47.522;19.106;2024-01-10T08:18:27;102113.44;;;-3.90;100.00
54978;BME280;40873;47.522;19.106;2024-01-10T08:20:56;102118.72;;;-3.86;100.00
54978;BME280;40873;47.522;19.106;2024-01-10T08:23:24;102117.22;;;-3.77;100.00
54978;BME280;40873;47.522;19.106;2024-01-10T08:25:51;102126.00;;;-3.71;100.00
54978;BME280;40873;47.522;19.106;2024-01-10T08:28:21;102127.91;;;-3.64;100.00
54978;BME280;40873;47.522;19.106;2024-01-10T08:30:48;102130.59;;;-3.59;100.00
54978;BME280;40873;47.522;19.106;2024-01-10T08:33:15;102130.75;;;-3.54;100.00
54978;BME280;40873;47.522;19.106;2024-01-10T08:35:44;102132.75;;;-3.41;100.00
54978;BME280;40873;47.522;19.106;2024-01-10T08:38:12;102138.88;;;-3.39;100.00
54978;BME280;40873;47.522;19.106;2024-01-10T08:40:46;102131.31;;;-3.32;100.00
54978;BME280;40873;47.522;19.106;2024-01-10T08:43:14;102134.88;;;-3.26;100.00
54978;BME280;40873;47.522;19.106;2024-01-10T08:45:42;102139.22;;;-3.25;100.00
54978;BME280;40873;47.522;19.106;2024-01-10T08:48:09;102141.06;;;-3.20;100.00
54978;BME280;40873;47.522;19.106;2024-01-10T08:50:37;102135.28;;;-3.10;100.00
54978;BME280;40873;47.522;19.106;2024-01-10T08:53:05;102138.94;;;-3.00;100.00
54978;BME280;40873;47.522;19.106;2024-01-10T08:55:32;102135.59;;;-2.96;100.00
54978;BME280;40873;47.522;19.106;2024-01-10T08:58:00;102141.69;;;-2.92;100.00
54978;BME280;40873;47.522;19.106;2024-01-10T09:00:28;102140.06;;;-2.89;100.00
54978;BME280;40873;47.522;19.106;2024-01-10T09:02:55;102134.16;;;-2.85;100.00
54978;BME280;40873;47.522;19.106;2024-01-10T09:05:22;102129.16;;;-2.77;100.00
54978;BME280;40873;47.522;19.106;2024-01-10T09:07:50;102138.66;;;-2.76;100.00
54978;BME280;40873;47.522;19.106;2024-01-10T09:10:17;102129.41;;;-2.65;100.00
54978;BME280;40873;47.522;19.106;2024-01-10T09:12:44;102121.16;;;-2.50;98.34
54978;BME280;40873;47.522;19.106;2024-01-10T09:15:13;102116.22;;;-2.38;95.27
54978;BME280;40873;47.522;19.106;2024-01-10T09:17:42;102115.66;;;-2.23;94.77
54978;BME280;40873;47.522;19.106;2024-01-10T09:20:13;102112.72;;;-1.98;88.52
54978;BME280;40873;47.522;19.106;2024-01-10T09:22:40;102114.72;;;-1.83;86.96
54978;BME280;40873;47.522;19.106;2024-01-10T09:25:07;102116.66;;;-1.71;85.89
54978;BME280;40873;47.522;19.106;2024-01-10T09:27:35;102109.31;;;-1.47;86.25
54978;BME280;40873;47.522;19.106;2024-01-10T09:30:03;102112.22;;;-1.28;83.08
54978;BME280;40873;47.522;19.106;2024-01-10T09:32:31;102097.97;;;-1.03;74.97
54978;BME280;40873;47.522;19.106;2024-01-10T09:35:02;102106.16;;;-0.73;72.96
54978;BME280;40873;47.522;19.106;2024-01-10T09:37:29;102093.56;;;-0.48;74.38
54978;BME280;40873;47.522;19.106;2024-01-10T09:40:00;102100.84;;;-0.17;74.39
54978;BME280;40873;47.522;19.106;2024-01-10T09:42:28;102099.63;;;0.33;72.59
54978;BME280;40873;47.522;19.106;2024-01-10T09:45:00;102092.97;;;0.59;69.76
54978;BME280;40873;47.522;19.106;2024-01-10T09:47:28;102086.22;;;0.82;63.52
54978;BME280;40873;47.522;19.106;2024-01-10T09:49:59;102090.63;;;0.96;60.78
54978;BME280;40873;47.522;19.106;2024-01-10T09:52:35;102082.94;;;1.09;58.92
54978;BME280;40873;47.522;19.106;2024-01-10T09:55:07;102084.75;;;1.24;58.76
54978;BME280;40873;47.522;19.106;2024-01-10T09:57:40;102085.75;;;1.46;57.75
54978;BME280;40873;47.522;19.106;2024-01-10T10:00:11;102084.81;;;1.33;54.99
54978;BME280;40873;47.522;19.106;2024-01-10T10:02:38;102076.22;;;1.50;54.88
54978;BME280;40873;47.522;19.106;2024-01-10T10:05:17;102076.28;;;1.63;54.33
54978;BME280;40873;47.522;19.106;2024-01-10T10:07:50;102073.78;;;1.96;54.35
54978;BME280;40873;47.522;19.106;2024-01-10T10:10:18;102064.28;;;2.17;57.43
54978;BME280;40873;47.522;19.106;2024-01-10T10:12:52;102060.81;;;2.22;56.39
54978;BME280;40873;47.522;19.106;2024-01-10T10:15:23;102057.34;;;2.33;54.40
54978;BME280;40873;47.522;19.106;2024-01-10T10:17:50;102059.09;;;2.46;53.54
54978;BME280;40873;47.522;19.106;2024-01-10T10:23:21;102056.47;;;2.82;52.29
54978;BME280;40873;47.522;19.106;2024-01-10T10:25:48;102059.09;;;2.68;51.21
54978;BME280;40873;47.522;19.106;2024-01-10T10:28:16;102047.81;;;2.67;50.23
54978;BME280;40873;47.522;19.106;2024-01-10T10:30:55;102053.00;;;2.77;51.29
54978;BME280;40873;47.522;19.106;2024-01-10T10:33:26;102039.91;;;3.15;53.17
54978;BME280;40873;47.522;19.106;2024-01-10T10:35:53;102044.09;;;3.58;51.44
54978;BME280;40873;47.522;19.106;2024-01-10T10:38:22;102037.91;;;3.79;46.69
54978;BME280;40873;47.522;19.106;2024-01-10T10:40:50;102030.78;;;4.03;46.42
54978;BME280;40873;47.522;19.106;2024-01-10T10:43:18;102030.75;;;4.10;45.60
54978;BME280;40873;47.522;19.106;2024-01-10T10:45:50;102024.34;;;4.50;45.06
54978;BME280;40873;47.522;19.106;2024-01-10T10:48:19;102021.94;;;4.25;45.83
54978;BME280;40873;47.522;19.106;2024-01-10T10:51:01;102021.94;;;4.22;45.77
54978;BME280;40873;47.522;19.106;2024-01-10T10:53:31;102001.75;;;4.43;45.65
54978;BME280;40873;47.522;19.106;2024-01-10T10:55:59;102001.66;;;4.52;44.47
54978;BME280;40873;47.522;19.106;2024-01-10T10:58:27;102010.41;;;4.49;44.88
54978;BME280;40873;47.522;19.106;2024-01-10T11:00:57;102002.72;;;4.32;43.27
54978;BME280;40873;47.522;19.106;2024-01-10T11:03:25;101992.09;;;4.52;43.54
54978;BME280;40873;47.522;19.106;2024-01-10T11:05:58;102001.38;;;4.84;42.63
54978;BME280;40873;47.522;19.106;2024-01-10T11:08:27;101994.44;;;4.78;42.42
54978;BME280;40873;47.522;19.106;2024-01-10T11:10:57;101992.41;;;5.06;44.00
54978;BME280;40873;47.522;19.106;2024-01-10T11:13:28;101985.34;;;5.16;41.85
54978;BME280;40873;47.522;19.106;2024-01-10T11:19:24;101983.81;;;4.95;40.92
54978;BME280;40873;47.522;19.106;2024-01-10T11:24:57;101987.09;;;5.15;41.48
54978;BME280;40873;47.522;19.106;2024-01-10T11:27:28;101971.22;;;5.26;40.00
54978;BME280;40873;47.522;19.106;2024-01-10T11:29:57;101966.91;;;5.23;39.25
54978;BME280;40873;47.522;19.106;2024-01-10T11:32:27;101970.53;;;5.15;40.76
54978;BME280;40873;47.522;19.106;2024-01-10T11:34:57;101963.38;;;5.26;41.25
54978;BME280;40873;47.522;19.106;2024-01-10T11:37:38;101968.09;;;4.98;41.57
54978;BME280;40873;47.522;19.106;2024-01-10T11:40:14;101969.66;;;5.13;40.68
54978;BME280;40873;47.522;19.106;2024-01-10T11:42:46;101964.75;;;4.84;38.60
54978;BME280;40873;47.522;19.106;2024-01-10T11:47:57;101954.13;;;4.10;40.33
54978;BME280;40873;47.522;19.106;2024-01-10T11:50:25;101954.53;;;3.55;41.32
54978;BME280;40873;47.522;19.106;2024-01-10T11:52:53;101953.03;;;3.07;42.52
54978;BME280;40873;47.522;19.106;2024-01-10T11:55:51;101952.28;;;2.56;43.51
54978;BME280;40873;47.522;19.106;2024-01-10T11:58:25;101954.84;;;2.69;44.38
54978;BME280;40873;47.522;19.106;2024-01-10T12:00:52;101941.91;;;2.13;45.85
54978;BME280;40873;47.522;19.106;2024-01-10T12:03:23;101947.09;;;2.08;46.71
54978;BME280;40873;47.522;19.106;2024-01-10T12:05:51;101932.34;;;2.00;46.59
54978;BME280;40873;47.522;19.106;2024-01-10T12:08:19;101932.34;;;2.06;47.05
54978;BME280;40873;47.522;19.106;2024-01-10T12:10:46;101932.38;;;1.97;46.78
54978;BME280;40873;47.522;19.106;2024-01-10T12:13:14;101934.97;;;2.09;46.42
54978;BME280;40873;47.522;19.106;2024-01-10T12:15:42;101934.09;;;2.11;47.09
54978;BME280;40873;47.522;19.106;2024-01-10T12:18:12;101933.22;;;2.17;46.72
54978;BME280;40873;47.522;19.106;2024-01-10T12:20:39;101934.97;;;2.12;47.25
54978;BME280;40873;47.522;19.106;2024-01-10T12:23:09;101929.75;;;2.15;49.81
54978;BME280;40873;47.522;19.106;2024-01-10T12:25:42;101935.81;;;2.26;49.96
54978;BME280;40873;47.522;19.106;2024-01-10T12:28:09;101934.97;;;2.32;48.95
54978;BME280;40873;47.522;19.106;2024-01-10T12:30:36;101938.41;;;2.34;49.48
54978;BME280;40873;47.522;19.106;2024-01-10T12:33:10;101934.09;;;2.43;49.22
54978;BME280;40873;47.522;19.106;2024-01-10T12:35:38;101932.31;;;2.50;49.83
54978;BME280;40873;47.522;19.106;2024-01-10T12:38:10;101922.75;;;2.58;48.19
54978;BME280;40873;47.522;19.106;2024-01-10T12:40:39;101927.91;;;2.77;47.38
54978;BME280;40873;47.522;19.106;2024-01-10T12:43:09;101925.34;;;2.67;48.13
54978;BME280;40873;47.522;19.106;2024-01-10T12:45:37;101929.63;;;2.82;46.44
54978;BME280;40873;47.522;19.106;2024-01-10T12:48:05;101920.13;;;2.66;47.31
54978;BME280;40873;47.522;19.106;2024-01-10T12:50:35;101918.44;;;2.43;47.53
54978;BME280;40873;47.522;19.106;2024-01-10T12:53:02;101918.44;;;2.45;48.37
54978;BME280;40873;47.522;19.106;2024-01-10T12:55:29;101908.03;;;2.37;50.23